Date,TemperatureHighF,TemperatureAvgF,TemperatureLowF,DewpointHighF,DewpointAvgF,DewpointLowF,HumidityHigh,HumidityAvg,HumidityLow,PressureMaxIn,PressureMinIn,WindSpeedMaxMPH,WindSpeedAvgMPH,GustSpeedMaxMPH,PrecipitationSumIn
2013-1-1,37,32,26,36,31,23,100,96,86,30.24,30.03,8,2,11,0.01
2013-1-2,36,27,21,25,20,16,89,76,53,30.26,30.17,6,1,8,0.00
2013-1-3,42,28,18,32,21,13,88,74,50,30.42,30.25,7,1,24,0.00
2013-1-4,46,33,20,28,22,16,90,66,37,30.45,30.32,10,1,14,0.00
2013-1-5,43,36,26,34,28,18,87,74,65,30.32,30.17,9,2,13,0.00
2013-1-6,45,32,22,29,22,15,91,68,34,30.36,30.23,9,2,12,0.00
2013-1-7,52,34,19,31,22,12,85,63,34,30.34,30.12,11,1,15,0.00
2013-1-8,60,41,24,47,34,18,100,77,51,30.21,30.04,8,1,13,0.08
2013-1-9,54,50,47,49,45,40,99,85,64,30.34,30.21,11,3,17,0.09
2013-1-10,61,52,47,57,48,42,95,89,74,30.22,29.82,9,4,15,0.05
2013-1-11,66,55,44,47,45,42,95,71,45,29.90,29.75,15,4,24,0.00
2013-1-12,59,45,31,52,38,27,92,78,44,29.95,29.77,14,4,19,0.25
2013-1-13,31,24,17,27,17,10,87,75,65,30.33,29.94,172,0,172,0.00
2013-1-14,33,23,15,13,10,7,76,59,37,30.44,30.30,10,1,13,0.00
2013-1-15,34,25,16,20,14,8,77,62,45,30.31,28.75,8,2,10,0.00
2013-1-16,42,27,14,21,14,8,81,61,35,30.19,30.09,7,1,11,0.00
2013-1-17,48,33,21,33,23,14,77,66,44,30.48,30.19,12,2,18,0.00
2013-1-18,57,38,21,32,24,16,86,62,31,30.50,30.21,12,2,17,0.00
2013-1-19,63,48,34,37,32,26,82,56,35,30.21,30.08,11,3,19,0.00
2013-1-20,62,43,28,38,30,17,90,63,33,30.26,30.11,14,2,17,0.00
2013-1-21,33,29,23,20,13,10,67,51,40,30.38,30.25,11,5,14,0.00
2013-1-30,33,31,31,26,25,24,78,77,75,29.85,29.79,17,9,27,0.01
2013-1-31,31,31,31,25,25,25,77,77,77,29.85,29.85,8,8,18,0.01
2013-2-24,60,51,31,37,34,26,84,53,36,29.99,29.83,7,2,14,0.00
2013-2-25,43,40,37,41,36,31,100,86,66,29.88,29.42,13,4,21,0.31
2013-2-26,37,34,32,36,32,31,100,94,86,29.88,29.37,13,5,21,0.05
2013-2-27,41,35,31,32,29,25,90,80,66,30.07,29.86,13,5,18,0.00
2013-2-28,36,33,29,27,26,24,88,77,64,30.18,30.06,11,5,15,0.00
2013-3-1,33,30,27,26,21,16,78,70,61,30.25,30.14,13,5,17,0.00
2013-3-2,39,30,22,22,19,14,79,64,42,30.31,30.19,12,4,17,0.00
2013-3-3,59,42,21,33,26,15,81,57,34,30.19,29.77,11,2,17,0.00
2013-3-4,66,54,45,49,42,32,92,63,49,29.87,29.61,14,3,20,0.00
2013-3-5,45,39,32,37,26,16,96,63,42,30.30,29.87,17,8,25,0.09
2013-3-6,49,35,24,29,21,16,72,57,35,30.40,30.22,11,2,15,0.00
2013-3-7,65,49,30,33,28,22,79,49,21,30.26,30.13,9,1,14,0.00
2013-3-8,64,53,38,40,36,32,81,56,39,30.24,30.03,11,2,14,0.00
2013-3-9,70,60,52,59,49,37,100,69,46,30.05,29.69,12,3,19,1.30
2013-3-10,56,44,31,56,43,27,100,97,87,29.95,29.66,14,4,24,0.58
2013-3-11,45,34,28,29,25,20,91,70,36,30.03,29.91,13,5,21,0.00
2013-3-12,56,38,27,34,27,18,88,68,26,30.22,30.02,11,2,17,0.00
2013-3-16,77,65,52,54,49,43,77,57,44,29.81,29.70,14,4,20,1.97
2013-3-17,52,45,42,45,43,40,100,92,71,29.82,29.62,12,4,21,0.18
2013-3-18,55,45,34,45,39,28,100,82,38,30.00,29.63,15,4,18,0.00
2013-3-19,58,44,30,33,26,16,93,56,22,30.20,29.96,13,2,18,0.00
2013-3-20,48,37,26,32,22,11,96,59,25,30.30,30.05,15,4,20,0.00
2013-3-21,44,35,31,35,25,9,100,70,25,30.06,29.74,8,3,14,0.27
2013-3-22,42,38,33,41,37,33,100,98,94,29.88,29.76,8,3,11,0.44
2013-3-23,42,39,37,42,39,36,99,98,97,29.85,29.65,7,3,11,0.01
2013-3-24,41,34,28,41,30,19,100,88,69,30.07,29.59,20,7,29,0.04
2013-3-25,35,29,24,24,20,17,84,70,55,30.27,30.04,14,5,21,0.00
2013-3-26,45,31,19,25,20,14,88,66,40,30.36,30.24,11,2,16,0.00
2013-3-27,63,44,24,35,25,18,85,53,22,30.26,30.07,10,2,14,0.00
2013-3-28,70,57,40,51,42,29,77,60,45,30.16,30.06,11,2,17,0.00
2013-3-29,69,59,52,58,54,48,100,85,64,30.15,30.04,8,1,9,0.41
2013-3-30,70,60,52,59,56,52,100,89,64,30.06,29.84,14,2,20,0.52
2013-3-31,69,59,45,56,46,37,100,67,33,29.94,29.85,11,3,14,0.01
2013-4-1,64,49,37,47,42,36,100,78,45,30.12,29.92,15,4,22,0.00
2013-4-2,44,39,36,39,36,32,100,91,68,30.20,30.11,10,4,14,0.44
2013-4-3,50,43,37,40,29,26,94,59,39,30.18,30.09,11,3,16,0.21
2013-4-4,58,47,40,42,37,26,100,71,34,30.11,30.00,13,2,17,0.01
2013-4-5,71,51,30,44,35,29,100,61,23,30.15,29.94,8,1,11,0.00
2013-4-6,75,63,52,51,46,38,74,54,37,29.94,29.76,19,4,25,0.00
2013-4-7,78,64,50,61,56,49,100,75,53,29.88,29.71,11,2,18,0.00
2013-4-8,72,67,60,63,60,56,97,80,70,29.77,29.68,11,2,19,0.32
2013-4-9,81,72,64,66,62,58,85,72,56,29.75,29.66,11,2,17,0.00
2013-4-10,74,48,37,66,46,36,100,95,73,29.85,29.68,12,4,20,0.01
2013-4-11,52,40,34,36,33,30,100,78,45,29.84,29.70,11,4,17,0.00
2013-4-12,57,44,32,40,33,28,96,69,44,29.98,29.76,13,3,20,0.00
2013-4-13,71,54,38,52,44,36,100,72,41,30.01,29.75,8,1,14,0.00
2013-4-14,79,68,55,54,51,47,77,56,37,29.76,29.50,13,3,18,0.00
2013-4-15,82,69,56,68,61,52,92,78,58,29.77,29.63,12,2,17,0.00
2013-4-16,80,64,53,67,59,52,100,86,62,29.94,29.77,11,2,14,0.00
2013-4-17,84,74,58,73,67,58,100,79,59,29.90,29.63,14,3,20,0.00
2013-4-18,75,49,38,69,46,31,100,88,68,29.96,29.51,15,5,22,0.00
2013-4-19,56,43,33,34,28,21,82,58,30,30.06,29.93,16,4,22,0.00
2013-4-20,69,52,34,43,36,31,100,61,26,30.16,30.03,7,1,10,0.00
2013-4-21,71,58,46,46,42,38,86,57,31,30.22,30.06,8,1,11,0.00
2013-4-22,74,60,46,48,43,39,81,56,34,30.14,29.85,9,2,13,0.00
2013-4-23,65,51,37,56,47,36,100,85,62,30.12,29.82,11,3,14,0.00
2013-4-24,54,42,35,36,32,25,97,71,34,30.32,30.11,11,4,14,0.00
2013-4-25,70,47,29,43,32,26,96,65,20,30.37,30.20,4,0,8,0.00
2013-4-26,59,52,49,52,48,36,100,86,44,30.32,30.11,9,2,14,0.00
2013-4-27,58,54,51,57,53,51,100,99,97,30.13,29.93,8,2,11,0.00
2013-4-28,76,60,50,56,52,49,99,79,43,30.04,29.89,8,1,10,0.00
2013-4-29,84,68,50,64,56,49,100,71,39,29.92,29.79,10,2,18,0.09
2013-4-30,82,73,60,58,53,46,84,53,30,29.88,29.81,9,2,15,0.00
2013-5-1,84,69,56,67,59,52,96,72,45,30.08,29.88,6,1,9,0.00
2013-5-2,60,49,34,59,47,33,100,95,87,30.26,30.05,13,4,21,0.01
2013-5-3,47,39,33,40,34,30,100,86,53,30.24,29.95,14,5,20,0.00
2013-5-4,45,40,36,40,37,34,100,90,78,30.01,29.84,11,2,14,0.00
2013-5-5,60,48,36,50,44,36,100,84,61,30.09,29.99,10,3,14,0.00
2013-5-6,64,54,47,55,51,46,100,89,69,30.10,30.01,8,3,11,0.00
2013-5-7,77,60,42,59,51,42,100,76,40,30.10,29.99,4,0,5,0.00
2013-5-8,81,66,52,63,57,52,100,75,43,30.07,29.91,8,1,13,0.01
2013-5-9,78,65,59,64,60,58,100,86,57,30.01,29.89,10,2,17,0.01
2013-5-10,69,63,57,62,59,54,100,86,66,30.07,29.90,11,2,14,0.00
2013-5-11,74,60,47,58,48,35,100,70,29,30.22,30.06,14,2,17,0.00
2013-5-12,68,54,38,49,40,31,100,65,29,30.28,30.14,8,1,13,0.19
2013-5-13,82,65,45,59,51,44,97,67,39,30.17,30.05,11,1,15,0.05
2013-5-14,87,74,62,62,55,51,75,54,31,30.08,29.96,9,2,14,0.00
2013-5-15,76,69,63,70,62,53,100,81,62,30.01,29.88,8,1,13,0.01
2013-5-16,72,65,61,67,64,61,100,95,81,29.91,29.83,2,0,5,0.01
2013-5-17,82,70,56,68,64,55,100,83,57,29.94,29.87,4,0,7,0.00
2013-5-18,86,75,64,76,71,63,100,86,69,29.93,29.81,7,1,11,0.00
2013-5-19,88,79,71,72,68,63,96,71,45,29.86,29.67,10,2,15,0.00
2013-5-20,80,72,61,72,67,61,100,85,75,29.86,29.70,17,1,36,0.05
2013-5-21,64,62,59,63,61,59,100,97,88,29.94,29.59,9,2,14,0.00
2013-5-22,76,64,52,63,58,52,100,82,55,29.95,29.81,9,1,13,0.00
2013-5-23,74,64,54,64,59,53,100,85,66,30.15,29.95,5,0,8,0.00
2013-5-24,78,67,57,65,59,54,94,75,60,30.27,30.14,4,1,9,0.00
2013-5-25,83,71,59,69,61,52,86,71,58,30.24,30.07,5,1,11,0.00
2013-5-26,83,74,63,70,66,61,100,78,56,30.13,29.99,8,1,12,0.00
2013-5-27,84,76,69,71,68,61,94,77,57,30.01,29.82,8,2,17,0.00
2013-5-28,84,77,72,69,67,64,85,72,58,29.90,29.78,10,2,17,0.00
2013-5-29,80,76,71,69,67,66,84,75,65,29.91,29.77,8,1,14,0.00
2013-5-30,79,71,63,71,67,62,100,86,71,29.89,29.73,17,2,36,0.14
2013-5-31,86,76,62,75,71,62,100,85,67,29.83,29.67,9,2,16,0.00
2013-6-1,78,69,65,74,67,64,100,93,78,29.93,29.70,13,2,25,0.00
2013-6-2,68,63,55,59,57,54,96,81,69,30.06,29.99,9,1,12,0.01
2013-6-3,82,65,48,64,57,48,100,79,51,30.07,29.91,5,0,8,0.00
2013-6-4,80,69,63,69,64,59,96,83,66,30.01,29.91,4,0,7,0.00
2013-6-5,79,69,61,71,65,60,100,88,68,30.03,29.87,9,1,13,0.00
2013-6-6,73,66,58,66,62,57,100,86,66,29.96,29.89,10,2,13,0.00
2013-6-7,76,65,52,62,56,52,100,76,48,30.00,29.91,9,1,12,0.00
2013-6-8,82,68,51,65,58,51,100,76,49,29.97,29.85,4,1,8,0.00
2013-6-9,82,74,64,68,63,57,89,71,44,29.93,29.86,8,1,11,0.00
2013-6-10,90,77,63,73,67,60,91,73,46,29.95,29.88,5,1,10,0.00
2013-6-11,92,82,70,73,70,67,92,68,45,30.02,29.93,9,1,13,0.00
2013-6-12,90,82,75,74,72,68,89,71,51,30.02,29.91,10,2,16,0.00
2013-6-13,88,80,69,74,71,68,100,76,53,30.04,29.95,4,1,7,0.00
2013-6-14,92,78,68,76,71,67,100,82,57,30.04,29.93,4,1,8,0.00
2013-6-15,91,78,70,76,71,53,100,80,57,30.06,29.96,9,1,12,0.00
2013-6-16,87,77,70,76,71,66,100,83,64,30.02,29.92,5,1,11,0.00
2013-6-17,75,70,67,72,68,66,100,95,85,29.99,29.88,7,1,9,0.00
2013-6-18,85,74,63,70,66,62,100,80,53,30.04,29.95,4,0,5,0.00
2013-6-19,88,75,61,72,66,61,100,74,46,30.07,29.97,4,0,8,0.00
2013-6-20,90,79,64,75,70,63,100,77,56,30.08,30.00,6,1,11,0.00
2013-6-21,91,83,76,76,73,71,90,73,53,30.10,30.01,7,1,13,0.00
2013-6-22,90,82,73,75,72,70,93,74,54,30.09,29.96,6,1,11,0.00
2013-6-23,90,81,71,75,72,69,100,77,51,30.03,29.93,8,1,16,0.00
2013-6-24,90,82,74,75,72,70,90,73,53,30.07,29.97,7,1,12,0.00
2013-6-25,88,83,76,74,71,69,87,69,53,30.00,29.87,7,2,14,0.00
2013-6-26,93,83,76,80,75,71,100,77,58,29.96,29.86,8,2,11,0.00
2013-6-27,96,84,71,78,75,71,100,76,49,30.00,26.97,5,1,7,0.00
2013-6-28,90,83,76,78,71,63,91,68,43,29.97,29.85,10,2,12,0.00
2013-6-29,86,75,61,64,58,54,100,60,34,29.91,29.81,14,3,22,0.00
2013-6-30,79,70,61,64,60,56,93,72,55,29.99,29.86,11,2,16,0.00
2013-7-1,81,70,59,63,57,47,100,67,32,30.05,29.96,12,1,16,0.00
2013-7-2,81,68,52,61,54,47,100,66,32,30.10,30.03,12,1,14,0.00
2013-7-3,86,69,52,63,55,47,100,67,29,30.13,30.01,4,0,8,0.00
2013-7-4,87,73,57,64,59,55,96,66,35,30.08,29.97,6,1,9,0.00
2013-7-5,90,76,59,66,61,58,100,63,35,30.06,29.95,7,1,11,0.00
2013-7-6,91,76,63,68,63,59,93,67,36,30.05,29.94,5,0,7,0.00
2013-7-7,93,80,68,72,67,62,96,68,38,30.06,29.99,5,1,8,0.00
2013-7-8,94,82,68,74,69,66,97,70,44,30.11,30.02,7,1,8,0.00
2013-7-9,96,84,72,73,71,70,93,68,44,30.11,29.98,6,1,12,0.00
2013-7-10,98,85,71,73,70,68,89,64,42,30.03,29.90,7,1,11,0.00
2013-7-11,96,83,69,76,70,64,100,69,40,30.02,29.92,4,0,8,0.00
2013-7-12,94,82,71,72,66,62,79,61,42,30.06,29.97,4,1,6,0.00
2013-7-13,90,77,62,64,61,58,95,62,39,30.06,29.97,4,0,7,0.00
2013-7-14,89,77,62,65,60,54,93,59,32,30.08,29.98,6,1,11,0.00
2013-7-15,92,80,70,72,68,63,97,69,44,30.19,30.06,7,1,10,0.00
2013-7-16,88,77,68,75,71,68,100,84,56,30.26,30.18,4,0,9,0.00
2013-7-17,94,86,73,73,70,67,86,59,43,30.32,30.20,4,1,6,0.00
2013-7-18,94,81,68,74,70,67,100,71,42,30.24,30.04,8,1,11,0.00
2013-7-19,94,80,70,74,70,68,94,73,44,30.08,29.95,10,1,11,0.00
2013-7-20,94,80,68,75,70,67,100,76,46,29.99,29.85,7,1,11,0.00
2013-7-21,85,76,70,78,73,68,100,90,74,29.97,29.85,5,0,8,0.00
2013-7-22,91,78,68,76,70,64,97,77,49,30.02,29.86,14,1,20,0.00
2013-7-23,96,85,72,78,74,71,96,71,47,29.94,26.88,9,2,14,0.00
2013-7-24,86,76,68,73,70,67,100,84,61,30.03,29.87,9,2,14,0.00
2013-7-25,87,76,66,74,70,66,100,83,53,30.10,30.03,4,0,5,0.00
2013-7-26,73,72,67,72,70,66,100,96,88,30.07,30.00,2,0,4,0.00
2013-7-27,81,72,63,69,64,60,100,80,50,30.07,29.97,8,1,13,0.00
2013-7-28,81,71,62,69,65,61,97,83,61,30.06,30.00,4,0,9,0.00
2013-7-29,87,78,67,76,71,66,100,82,65,30.07,30.00,6,1,11,0.00
2013-7-30,86,78,71,77,74,71,100,87,68,30.06,30.00,8,1,11,1.63
2013-7-31,87,81,73,77,74,71,100,81,62,30.08,30.00,11,1,15,3.98
2013-8-1,88,77,66,74,69,64,100,79,46,30.12,29.99,4,0,5,0.00
2013-8-2,88,79,71,80,74,69,96,86,73,30.02,29.90,5,0,8,0.00
2013-8-3,86,78,68,78,74,68,100,88,67,30.14,29.92,13,1,16,4.28
2013-8-4,79,75,73,77,74,72,100,96,84,30.14,30.01,4,0,8,0.08
2013-8-5,91,85,73,80,78,72,100,80,63,30.05,29.88,5,1,8,0.22
2013-8-6,94,84,74,79,76,71,94,79,57,29.94,29.83,5,1,8,0.00
2013-8-7,92,82,74,81,77,73,97,83,64,29.98,29.85,7,1,9,0.00
2013-8-8,84,76,68,77,73,68,100,91,71,30.02,29.87,14,1,21,4.33
2013-8-9,83,76,71,75,73,71,100,90,70,30.05,29.94,7,1,10,0.17
2013-8-10,83,76,70,75,72,70,100,87,72,30.12,30.04,5,1,9,0.00
2013-8-11,87,78,71,77,73,70,100,87,64,30.11,30.02,5,0,8,0.00
2013-8-12,84,76,71,77,73,70,100,92,74,30.10,29.97,14,1,19,0.00
2013-8-13,78,73,68,75,72,67,100,95,81,30.08,29.99,4,0,7,0.00
2013-8-14,78,70,61,67,63,60,100,80,55,30.16,30.07,4,1,8,0.00
2013-8-15,77,67,57,62,59,56,100,78,51,30.15,30.03,4,0,8,0.00
2013-8-16,77,68,60,64,61,59,96,80,58,30.14,30.05,4,0,8,0.00
2013-8-17,78,67,55,65,61,54,100,82,57,30.16,30.06,5,0,7,0.00
2013-8-18,82,67,59,70,63,59,100,90,54,30.16,30.07,3,0,4,0.00
2013-8-19,80,67,61,71,65,61,100,92,65,30.14,30.03,4,0,4,0.00
2013-8-20,84,69,62,72,65,62,100,88,53,30.12,30.04,4,0,6,0.00
2013-8-21,87,70,62,72,66,62,100,88,53,30.14,30.06,6,0,11,0.00
2013-8-22,85,71,64,74,68,63,100,91,66,30.14,30.03,4,0,7,0.00
2013-8-23,82,72,66,74,70,66,100,93,72,30.11,30.03,2,0,3,0.00
2013-8-24,73,71,69,70,70,69,100,97,90,30.13,30.07,1,0,2,0.00
2013-8-25,91,79,69,75,72,68,100,80,48,30.23,30.15,4,0,6,0.00
2013-8-26,91,78,69,76,71,68,100,81,52,30.23,30.12,3,0,5,0.00
2013-8-27,88,78,64,74,69,63,100,74,49,30.16,30.05,8,1,11,0.00
2013-8-28,90,78,66,75,70,65,100,81,51,30.11,30.04,7,1,12,0.00
2013-8-29,93,80,68,76,71,68,100,78,47,30.10,30.01,7,1,9,0.00
2013-8-30,93,81,70,78,72,69,100,77,47,30.04,29.91,8,1,12,0.00
2013-8-31,95,82,69,80,72,68,100,76,45,29.95,29.84,8,1,11,0.00
2013-9-1,91,78,72,75,72,69,96,82,52,29.94,29.83,6,0,11,0.00
2013-9-2,85,76,66,72,67,62,100,77,49,30.01,29.93,8,1,14,0.00
2013-9-3,86,72,57,71,62,57,100,75,39,30.08,29.99,5,0,11,0.00
2013-9-4,86,72,58,68,63,58,100,75,44,30.17,30.06,7,0,11,0.00
2013-9-5,86,72,58,68,63,58,100,75,44,30.20,30.10,5,0,8,0.00
2013-9-6,88,74,60,68,64,59,100,75,42,30.16,30.03,5,0,6,0.00
2013-9-7,93,77,62,72,66,62,100,74,41,30.07,29.96,7,1,9,0.00
2013-9-8,94,79,65,74,68,64,100,74,44,30.01,29.91,6,1,8,0.00
2013-9-9,95,79,66,72,67,64,100,72,37,30.04,29.95,7,1,8,0.00
2013-9-10,94,78,64,70,66,61,100,70,34,30.15,30.02,8,1,11,0.00
2013-9-11,91,78,66,73,68,65,100,75,43,30.17,30.06,6,0,7,0.00
2013-9-12,90,78,67,74,69,66,100,76,46,30.13,30.00,11,1,14,0.00
2013-9-13,82,73,62,69,58,52,89,60,37,30.10,29.99,7,1,9,0.00
2013-9-14,81,66,52,58,54,50,100,69,36,30.10,29.98,6,0,8,0.00
2013-9-15,88,72,56,70,60,53,94,69,44,30.08,30.00,6,1,9,0.00
2013-9-16,79,73,67,72,68,64,93,85,73,30.21,30.06,4,0,7,0.00
2013-9-17,85,75,67,73,68,65,97,81,54,30.15,30.02,3,0,5,0.00
2013-9-18,88,78,69,72,69,66,94,74,51,30.05,29.95,5,0,8,0.00
2013-9-19,91,78,68,75,69,66,93,75,47,30.02,29.90,6,1,12,0.00
2013-9-20,76,67,60,71,64,57,100,92,68,30.01,29.93,8,1,13,0.00
2013-9-21,75,61,47,58,52,47,100,76,38,30.04,29.93,8,0,15,0.00
2013-9-22,77,60,46,57,51,45,100,75,39,30.00,29.88,3,0,5,0.00
2013-9-23,79,63,49,59,54,48,100,76,42,29.95,29.81,4,0,7,0.00
2013-9-24,77,66,56,61,58,56,100,78,53,29.91,29.86,8,1,14,0.00
2013-9-25,79,65,51,64,59,51,100,84,53,29.91,29.83,6,1,9,0.00
2013-9-26,86,70,56,66,61,56,100,77,44,29.97,29.87,4,0,6,0.00
2013-9-27,85,72,59,67,62,59,100,74,46,30.03,29.92,4,1,10,0.00
2013-9-28,81,69,62,69,65,61,100,87,65,30.06,29.92,10,1,13,0.00
2013-9-29,75,64,56,62,59,54,100,84,49,30.07,29.93,5,0,9,0.00
2013-9-30,81,68,56,69,62,56,100,86,56,29.95,29.86,4,0,8,0.00
2013-10-1,84,73,65,73,68,64,100,85,59,30.01,29.90,4,0,8,0.00
2013-10-2,82,72,64,74,69,63,100,89,67,30.04,29.92,5,1,10,0.00
2013-10-3,84,74,66,72,69,66,100,85,63,29.96,29.87,7,1,13,0.00
2013-10-4,85,76,69,72,69,65,100,81,60,29.94,29.86,6,1,11,0.00
2013-10-5,74,58,47,72,57,46,100,97,88,30.08,29.90,9,1,14,0.01
2013-10-6,62,52,42,49,45,40,100,80,54,30.04,29.96,9,2,13,0.05
2013-10-7,69,54,40,53,46,40,100,78,39,30.16,30.02,8,1,11,0.00
2013-10-8,72,56,45,57,48,44,100,80,42,30.17,30.06,4,0,8,0.07
2013-10-9,75,59,44,55,51,44,100,77,39,30.14,30.03,3,0,6,0.00
2013-10-10,78,61,45,61,53,44,100,79,48,30.11,29.96,4,0,7,0.00
2013-10-11,76,74,69,68,66,65,87,77,71,29.92,29.87,8,2,17,0.00
2013-10-12,70,67,62,67,64,59,100,91,84,30.17,29.91,9,1,12,0.02
2013-10-13,72,65,59,59,54,50,86,70,56,30.32,30.17,4,1,8,0.00
2013-10-14,65,61,57,63,56,51,100,85,74,30.26,29.97,3,0,6,0.24
2013-10-15,66,60,53,66,58,50,100,95,84,30.07,29.90,8,1,11,0.35
2013-10-16,60,52,42,52,45,41,100,80,57,30.13,30.00,8,1,13,0.00
2013-10-17,60,46,40,50,44,40,100,94,60,30.08,30.01,5,1,8,0.01